sensor_id;sensor_type;location;lat;lon;timestamp;temperature;humidity
65239;SHT30;51827;51.186;6.926;2022-09-03T00:00:18;22.59;52.49
65239;SHT30;51827;51.186;6.926;2022-09-03T00:01:24;22.61;52.49
65239;SHT30;51827;51.186;6.926;2022-09-03T00:03:53;22.61;52.52
65239;SHT30;51827;51.186;6.926;2022-09-03T00:05:22;22.59;52.50
65239;SHT30;51827;51.186;6.926;2022-09-03T00:06:27;22.58;52.52
65239;SHT30;51827;51.186;6.926;2022-09-03T00:07:53;22.61;52.53
65239;SHT30;51827;51.186;6.926;2022-09-03T00:09:02;22.59;52.52
65239;SHT30;51827;51.186;6.926;2022-09-03T00:10:10;22.61;52.54
65239;SHT30;51827;51.186;6.926;2022-09-03T00:11:37;22.58;52.51
65239;SHT30;51827;51.186;6.926;2022-09-03T00:12:41;22.58;52.56
65239;SHT30;51827;51.186;6.926;2022-09-03T00:15:07;22.59;52.52
65239;SHT30;51827;51.186;6.926;2022-09-03T00:16:11;22.58;52.55
65239;SHT30;51827;51.186;6.926;2022-09-03T00:17:18;22.56;52.59
65239;SHT30;51827;51.186;6.926;2022-09-03T00:18:26;22.59;52.59
65239;SHT30;51827;51.186;6.926;2022-09-03T00:19:38;22.58;52.62
65239;SHT30;51827;51.186;6.926;2022-09-03T00:20:40;22.59;52.51
65239;SHT30;51827;51.186;6.926;2022-09-03T00:21:55;22.59;52.54
65239;SHT30;51827;51.186;6.926;2022-09-03T00:22:59;22.61;52.54
65239;SHT30;51827;51.186;6.926;2022-09-03T00:24:02;22.59;52.55
65239;SHT30;51827;51.186;6.926;2022-09-03T00:25:06;22.58;52.53
65239;SHT30;51827;51.186;6.926;2022-09-03T00:27:23;22.58;52.58
65239;SHT30;51827;51.186;6.926;2022-09-03T00:30:01;22.59;52.58
65239;SHT30;51827;51.186;6.926;2022-09-03T00:32:47;22.56;52.57
65239;SHT30;51827;51.186;6.926;2022-09-03T00:33:54;22.58;52.61
65239;SHT30;51827;51.186;6.926;2022-09-03T00:35:00;22.58;52.60
65239;SHT30;51827;51.186;6.926;2022-09-03T00:37:02;22.58;52.59
65239;SHT30;51827;51.186;6.926;2022-09-03T00:38:02;22.59;52.58
65239;SHT30;51827;51.186;6.926;2022-09-03T00:39:02;22.58;52.58
65239;SHT30;51827;51.186;6.926;2022-09-03T00:40:04;22.58;52.61
65239;SHT30;51827;51.186;6.926;2022-09-03T00:41:26;22.56;52.61
65239;SHT30;51827;51.186;6.926;2022-09-03T00:47:51;22.56;52.60
65239;SHT30;51827;51.186;6.926;2022-09-03T00:59:17;22.56;52.60
65239;SHT30;51827;51.186;6.926;2022-09-03T01:00:20;22.56;52.56
65239;SHT30;51827;51.186;6.926;2022-09-03T01:02:06;22.55;52.58
65239;SHT30;51827;51.186;6.926;2022-09-03T01:04:07;22.56;52.60
65239;SHT30;51827;51.186;6.926;2022-09-03T01:06:45;22.58;52.63
65239;SHT30;51827;51.186;6.926;2022-09-03T01:07:57;22.55;52.62
65239;SHT30;51827;51.186;6.926;2022-09-03T01:10:25;22.55;52.62
65239;SHT30;51827;51.186;6.926;2022-09-03T01:13:44;22.55;52.64
65239;SHT30;51827;51.186;6.926;2022-09-03T01:18:44;22.52;52.67
65239;SHT30;51827;51.186;6.926;2022-09-03T01:24:58;22.56;52.67
65239;SHT30;51827;51.186;6.926;2022-09-03T01:29:27;22.55;52.66
65239;SHT30;51827;51.186;6.926;2022-09-03T01:30:32;22.55;52.69
65239;SHT30;51827;51.186;6.926;2022-09-03T01:35:39;22.54;52.67
65239;SHT30;51827;51.186;6.926;2022-09-03T01:39:35;22.54;52.70
65239;SHT30;51827;51.186;6.926;2022-09-03T01:42:06;22.51;52.72
65239;SHT30;51827;51.186;6.926;2022-09-03T01:43:35;22.54;52.70
65239;SHT30;51827;51.186;6.926;2022-09-03T01:46:17;22.52;52.69
65239;SHT30;51827;51.186;6.926;2022-09-03T01:47:48;22.54;52.65
65239;SHT30;51827;51.186;6.926;2022-09-03T01:48:59;22.52;52.78
65239;SHT30;51827;51.186;6.926;2022-09-03T01:50:06;22.54;52.75
65239;SHT30;51827;51.186;6.926;2022-09-03T01:51:27;22.51;52.73
65239;SHT30;51827;51.186;6.926;2022-09-03T01:52:33;22.51;52.76
65239;SHT30;51827;51.186;6.926;2022-09-03T01:55:13;22.52;52.77
65239;SHT30;51827;51.186;6.926;2022-09-03T01:56:24;22.51;52.82
65239;SHT30;51827;51.186;6.926;2022-09-03T01:57:52;22.52;52.73
65239;SHT30;51827;51.186;6.926;2022-09-03T02:00:09;22.52;52.71
65239;SHT30;51827;51.186;6.926;2022-09-03T02:01:22;22.52;52.76
65239;SHT30;51827;51.186;6.926;2022-09-03T02:02:26;22.52;52.80
65239;SHT30;51827;51.186;6.926;2022-09-03T02:03:37;22.49;52.80
65239;SHT30;51827;51.186;6.926;2022-09-03T02:04:43;22.51;52.78
65239;SHT30;51827;51.186;6.926;2022-09-03T02:05:54;22.52;52.74
65239;SHT30;51827;51.186;6.926;2022-09-03T02:06:56;22.52;52.77
65239;SHT30;51827;51.186;6.926;2022-09-03T02:08:04;22.49;52.80
65239;SHT30;51827;51.186;6.926;2022-09-03T02:09:04;22.51;52.71
65239;SHT30;51827;51.186;6.926;2022-09-03T02:10:11;22.52;52.74
65239;SHT30;51827;51.186;6.926;2022-09-03T02:11:15;22.52;52.79
65239;SHT30;51827;51.186;6.926;2022-09-03T02:12:19;22.51;52.78
65239;SHT30;51827;51.186;6.926;2022-09-03T02:13:23;22.52;52.78
65239;SHT30;51827;51.186;6.926;2022-09-03T02:14:26;22.49;52.78
65239;SHT30;51827;51.186;6.926;2022-09-03T02:15:27;22.49;52.80
65239;SHT30;51827;51.186;6.926;2022-09-03T02:16:30;22.51;52.80
65239;SHT30;51827;51.186;6.926;2022-09-03T02:17:32;22.52;52.79
65239;SHT30;51827;51.186;6.926;2022-09-03T02:18:41;22.52;52.76
65239;SHT30;51827;51.186;6.926;2022-09-03T02:19:42;22.52;52.79
65239;SHT30;51827;51.186;6.926;2022-09-03T02:20:42;22.51;52.79
65239;SHT30;51827;51.186;6.926;2022-09-03T02:21:48;22.51;52.78
65239;SHT30;51827;51.186;6.926;2022-09-03T02:22:49;22.51;52.85
65239;SHT30;51827;51.186;6.926;2022-09-03T02:23:50;22.49;52.79
65239;SHT30;51827;51.186;6.926;2022-09-03T02:24:51;22.52;52.81
65239;SHT30;51827;51.186;6.926;2022-09-03T02:25:54;22.54;52.76
65239;SHT30;51827;51.186;6.926;2022-09-03T02:26:55;22.55;52.79
65239;SHT30;51827;51.186;6.926;2022-09-03T02:27:55;22.52;52.71
65239;SHT30;51827;51.186;6.926;2022-09-03T02:28:56;22.52;52.79
65239;SHT30;51827;51.186;6.926;2022-09-03T02:29:58;22.52;52.78
65239;SHT30;51827;51.186;6.926;2022-09-03T02:30:58;22.52;52.81
65239;SHT30;51827;51.186;6.926;2022-09-03T02:31:58;22.51;52.77
65239;SHT30;51827;51.186;6.926;2022-09-03T02:32:59;22.51;52.74
65239;SHT30;51827;51.186;6.926;2022-09-03T02:33:59;22.51;52.76
65239;SHT30;51827;51.186;6.926;2022-09-03T02:34:59;22.49;52.80
65239;SHT30;51827;51.186;6.926;2022-09-03T02:36:00;22.49;52.79
65239;SHT30;51827;51.186;6.926;2022-09-03T02:37:12;22.48;52.73
65239;SHT30;51827;51.186;6.926;2022-09-03T02:38:16;22.51;52.85
65239;SHT30;51827;51.186;6.926;2022-09-03T02:39:16;22.51;52.80
65239;SHT30;51827;51.186;6.926;2022-09-03T02:40:16;22.52;52.83
65239;SHT30;51827;51.186;6.926;2022-09-03T02:41:17;22.49;52.82
65239;SHT30;51827;51.186;6.926;2022-09-03T02:42:17;22.49;52.80
65239;SHT30;51827;51.186;6.926;2022-09-03T02:43:24;22.51;52.80
65239;SHT30;51827;51.186;6.926;2022-09-03T02:44:30;22.51;52.83
65239;SHT30;51827;51.186;6.926;2022-09-03T02:45:31;22.49;52.81
65239;SHT30;51827;51.186;6.926;2022-09-03T02:46:37;22.51;52.82
65239;SHT30;51827;51.186;6.926;2022-09-03T02:47:39;22.49;52.81
65239;SHT30;51827;51.186;6.926;2022-09-03T02:48:41;22.48;52.82
65239;SHT30;51827;51.186;6.926;2022-09-03T02:49:41;22.51;52.79
65239;SHT30;51827;51.186;6.926;2022-09-03T02:50:42;22.49;52.80
65239;SHT30;51827;51.186;6.926;2022-09-03T02:51:42;22.51;52.82
65239;SHT30;51827;51.186;6.926;2022-09-03T02:52:43;22.52;52.80
65239;SHT30;51827;51.186;6.926;2022-09-03T02:53:43;22.49;52.83
65239;SHT30;51827;51.186;6.926;2022-09-03T02:54:44;22.51;52.81
65239;SHT30;51827;51.186;6.926;2022-09-03T02:55:44;22.48;52.82
65239;SHT30;51827;51.186;6.926;2022-09-03T02:56:44;22.49;52.86
65239;SHT30;51827;51.186;6.926;2022-09-03T02:57:45;22.48;52.82
65239;SHT30;51827;51.186;6.926;2022-09-03T02:58:45;22.49;52.84
65239;SHT30;51827;51.186;6.926;2022-09-03T02:59:45;22.49;52.87
65239;SHT30;51827;51.186;6.926;2022-09-03T03:00:46;22.49;52.83
65239;SHT30;51827;51.186;6.926;2022-09-03T03:01:46;22.49;52.88
65239;SHT30;51827;51.186;6.926;2022-09-03T03:02:46;22.48;52.81
65239;SHT30;51827;51.186;6.926;2022-09-03T03:03:46;22.51;52.87
65239;SHT30;51827;51.186;6.926;2022-09-03T03:04:47;22.49;52.84
65239;SHT30;51827;51.186;6.926;2022-09-03T03:05:50;22.47;52.90
65239;SHT30;51827;51.186;6.926;2022-09-03T03:06:51;22.49;52.89
65239;SHT30;51827;51.186;6.926;2022-09-03T03:07:51;22.48;52.90
65239;SHT30;51827;51.186;6.926;2022-09-03T03:08:52;22.48;52.85
65239;SHT30;51827;51.186;6.926;2022-09-03T03:09:52;22.51;52.87
65239;SHT30;51827;51.186;6.926;2022-09-03T03:10:54;22.49;52.87
65239;SHT30;51827;51.186;6.926;2022-09-03T03:11:54;22.49;52.92
65239;SHT30;51827;51.186;6.926;2022-09-03T03:12:54;22.52;52.89
65239;SHT30;51827;51.186;6.926;2022-09-03T03:13:55;22.49;52.90
65239;SHT30;51827;51.186;6.926;2022-09-03T03:14:55;22.48;52.89
65239;SHT30;51827;51.186;6.926;2022-09-03T03:16:00;22.48;52.91
65239;SHT30;51827;51.186;6.926;2022-09-03T03:17:00;22.49;52.91
65239;SHT30;51827;51.186;6.926;2022-09-03T03:18:00;22.48;52.90
65239;SHT30;51827;51.186;6.926;2022-09-03T03:19:01;22.48;52.89
65239;SHT30;51827;51.186;6.926;2022-09-03T03:20:02;22.47;52.90
65239;SHT30;51827;51.186;6.926;2022-09-03T03:21:09;22.48;52.88
65239;SHT30;51827;51.186;6.926;2022-09-03T03:22:10;22.51;52.87
65239;SHT30;51827;51.186;6.926;2022-09-03T03:23:10;22.48;52.88
65239;SHT30;51827;51.186;6.926;2022-09-03T03:24:10;22.49;52.88
65239;SHT30;51827;51.186;6.926;2022-09-03T03:25:10;22.49;52.83
65239;SHT30;51827;51.186;6.926;2022-09-03T03:26:14;22.48;52.92
65239;SHT30;51827;51.186;6.926;2022-09-03T03:27:15;22.48;52.85
65239;SHT30;51827;51.186;6.926;2022-09-03T03:28:15;22.48;52.96
65239;SHT30;51827;51.186;6.926;2022-09-03T03:29:16;22.49;52.86
65239;SHT30;51827;51.186;6.926;2022-09-03T03:30:16;22.48;52.93
65239;SHT30;51827;51.186;6.926;2022-09-03T03:31:19;22.48;52.90
65239;SHT30;51827;51.186;6.926;2022-09-03T03:32:19;22.49;52.92
65239;SHT30;51827;51.186;6.926;2022-09-03T03:33:19;22.47;52.87
65239;SHT30;51827;51.186;6.926;2022-09-03T03:34:20;22.48;52.87
65239;SHT30;51827;51.186;6.926;2022-09-03T03:35:20;22.45;52.93
65239;SHT30;51827;51.186;6.926;2022-09-03T03:36:22;22.48;52.89
65239;SHT30;51827;51.186;6.926;2022-09-03T03:37:23;22.47;52.92
65239;SHT30;51827;51.186;6.926;2022-09-03T03:38:23;22.47;52.90
65239;SHT30;51827;51.186;6.926;2022-09-03T03:39:24;22.47;52.90
65239;SHT30;51827;51.186;6.926;2022-09-03T03:40:24;22.47;52.93
65239;SHT30;51827;51.186;6.926;2022-09-03T03:41:27;22.49;52.96
65239;SHT30;51827;51.186;6.926;2022-09-03T03:42:28;22.47;52.90
65239;SHT30;51827;51.186;6.926;2022-09-03T03:43:28;22.47;52.86
65239;SHT30;51827;51.186;6.926;2022-09-03T03:44:28;22.47;52.89
65239;SHT30;51827;51.186;6.926;2022-09-03T03:45:28;22.47;52.86
65239;SHT30;51827;51.186;6.926;2022-09-03T03:46:34;22.48;52.91
65239;SHT30;51827;51.186;6.926;2022-09-03T03:47:35;22.47;52.90
65239;SHT30;51827;51.186;6.926;2022-09-03T03:48:36;22.49;52.90
65239;SHT30;51827;51.186;6.926;2022-09-03T03:49:37;22.48;52.93
65239;SHT30;51827;51.186;6.926;2022-09-03T03:50:37;22.48;52.90
65239;SHT30;51827;51.186;6.926;2022-09-03T03:51:38;22.47;52.89
65239;SHT30;51827;51.186;6.926;2022-09-03T03:52:38;22.48;52.89
65239;SHT30;51827;51.186;6.926;2022-09-03T03:53:38;22.47;52.87
65239;SHT30;51827;51.186;6.926;2022-09-03T03:54:39;22.47;52.87
65239;SHT30;51827;51.186;6.926;2022-09-03T03:55:39;22.47;52.89
65239;SHT30;51827;51.186;6.926;2022-09-03T03:56:39;22.47;52.86
65239;SHT30;51827;51.186;6.926;2022-09-03T03:57:39;22.45;52.85
65239;SHT30;51827;51.186;6.926;2022-09-03T03:58:40;22.48;52.83
65239;SHT30;51827;51.186;6.926;2022-09-03T03:59:41;22.48;52.85
65239;SHT30;51827;51.186;6.926;2022-09-03T04:00:41;22.47;52.83
65239;SHT30;51827;51.186;6.926;2022-09-03T04:01:41;22.47;52.86
65239;SHT30;51827;51.186;6.926;2022-09-03T04:02:41;22.48;52.86
65239;SHT30;51827;51.186;6.926;2022-09-03T04:03:42;22.49;52.85
65239;SHT30;51827;51.186;6.926;2022-09-03T04:04:42;22.47;52.86
65239;SHT30;51827;51.186;6.926;2022-09-03T04:06:03;22.49;52.86
65239;SHT30;51827;51.186;6.926;2022-09-03T04:07:04;22.47;52.81
65239;SHT30;51827;51.186;6.926;2022-09-03T04:08:04;22.47;52.84
65239;SHT30;51827;51.186;6.926;2022-09-03T04:09:04;22.48;52.85
65239;SHT30;51827;51.186;6.926;2022-09-03T04:10:05;22.48;52.77
65239;SHT30;51827;51.186;6.926;2022-09-03T04:11:09;22.45;52.77
65239;SHT30;51827;51.186;6.926;2022-09-03T04:12:09;22.45;52.82
65239;SHT30;51827;51.186;6.926;2022-09-03T04:13:09;22.45;52.80
65239;SHT30;51827;51.186;6.926;2022-09-03T04:14:10;22.44;52.87
65239;SHT30;51827;51.186;6.926;2022-09-03T04:15:10;22.48;52.83
65239;SHT30;51827;51.186;6.926;2022-09-03T04:16:13;22.47;52.80
65239;SHT30;51827;51.186;6.926;2022-09-03T04:17:14;22.45;52.79
65239;SHT30;51827;51.186;6.926;2022-09-03T04:18:14;22.47;52.81
65239;SHT30;51827;51.186;6.926;2022-09-03T04:19:14;22.47;52.79
65239;SHT30;51827;51.186;6.926;2022-09-03T04:20:15;22.45;52.77
65239;SHT30;51827;51.186;6.926;2022-09-03T04:21:17;22.45;52.77
65239;SHT30;51827;51.186;6.926;2022-09-03T04:22:18;22.48;52.67
65239;SHT30;51827;51.186;6.926;2022-09-03T04:23:18;22.45;52.72
65239;SHT30;51827;51.186;6.926;2022-09-03T04:24:18;22.45;52.75
65239;SHT30;51827;51.186;6.926;2022-09-03T04:25:19;22.47;52.76
65239;SHT30;51827;51.186;6.926;2022-09-03T04:26:22;22.47;52.71
65239;SHT30;51827;51.186;6.926;2022-09-03T04:27:23;22.45;52.71
65239;SHT30;51827;51.186;6.926;2022-09-03T04:28:24;22.44;52.68
65239;SHT30;51827;51.186;6.926;2022-09-03T04:29:24;22.44;52.71
65239;SHT30;51827;51.186;6.926;2022-09-03T04:30:24;22.44;52.73
65239;SHT30;51827;51.186;6.926;2022-09-03T04:31:25;22.45;52.68
65239;SHT30;51827;51.186;6.926;2022-09-03T04:32:26;22.45;52.68
65239;SHT30;51827;51.186;6.926;2022-09-03T04:33:30;22.42;52.69
65239;SHT30;51827;51.186;6.926;2022-09-03T04:34:31;22.44;52.70
65239;SHT30;51827;51.186;6.926;2022-09-03T04:35:31;22.44;52.69
65239;SHT30;51827;51.186;6.926;2022-09-03T04:36:31;22.42;52.70
65239;SHT30;51827;51.186;6.926;2022-09-03T04:37:32;22.45;52.68
65239;SHT30;51827;51.186;6.926;2022-09-03T04:38:37;22.44;52.63
65239;SHT30;51827;51.186;6.926;2022-09-03T04:39:37;22.42;52.70
65239;SHT30;51827;51.186;6.926;2022-09-03T04:40:38;22.45;52.63
65239;SHT30;51827;51.186;6.926;2022-09-03T04:41:40;22.45;52.63
65239;SHT30;51827;51.186;6.926;2022-09-03T04:42:41;22.44;52.63
65239;SHT30;51827;51.186;6.926;2022-09-03T04:43:41;22.44;52.61
65239;SHT30;51827;51.186;6.926;2022-09-03T04:44:41;22.44;52.61
65239;SHT30;51827;51.186;6.926;2022-09-03T04:45:44;22.45;52.62
65239;SHT30;51827;51.186;6.926;2022-09-03T04:46:44;22.44;52.62
65239;SHT30;51827;51.186;6.926;2022-09-03T04:47:58;22.44;52.60
65239;SHT30;51827;51.186;6.926;2022-09-03T04:48:58;22.45;52.64
65239;SHT30;51827;51.186;6.926;2022-09-03T04:49:59;22.44;52.64
65239;SHT30;51827;51.186;6.926;2022-09-03T04:51:06;22.47;52.61
65239;SHT30;51827;51.186;6.926;2022-09-03T04:52:06;22.44;52.61
65239;SHT30;51827;51.186;6.926;2022-09-03T04:53:07;22.47;52.64
65239;SHT30;51827;51.186;6.926;2022-09-03T04:54:07;22.44;52.61
65239;SHT30;51827;51.186;6.926;2022-09-03T04:55:07;22.44;52.66
65239;SHT30;51827;51.186;6.926;2022-09-03T04:56:19;22.44;52.62
65239;SHT30;51827;51.186;6.926;2022-09-03T04:57:20;22.44;52.64
65239;SHT30;51827;51.186;6.926;2022-09-03T04:58:20;22.41;52.64
65239;SHT30;51827;51.186;6.926;2022-09-03T04:59:21;22.42;52.57
65239;SHT30;51827;51.186;6.926;2022-09-03T05:00:21;22.45;52.62
65239;SHT30;51827;51.186;6.926;2022-09-03T05:01:23;22.45;52.58
65239;SHT30;51827;51.186;6.926;2022-09-03T05:02:24;22.44;52.58
65239;SHT30;51827;51.186;6.926;2022-09-03T05:03:33;22.45;52.62
65239;SHT30;51827;51.186;6.926;2022-09-03T05:04:33;22.44;52.63
65239;SHT30;51827;51.186;6.926;2022-09-03T05:05:33;22.45;52.54
65239;SHT30;51827;51.186;6.926;2022-09-03T05:06:35;22.42;52.55
65239;SHT30;51827;51.186;6.926;2022-09-03T05:07:35;22.44;52.52
65239;SHT30;51827;51.186;6.926;2022-09-03T05:08:38;22.44;52.56
65239;SHT30;51827;51.186;6.926;2022-09-03T05:09:38;22.45;52.54
65239;SHT30;51827;51.186;6.926;2022-09-03T05:10:57;22.45;52.58
65239;SHT30;51827;51.186;6.926;2022-09-03T05:11:57;22.44;52.52
65239;SHT30;51827;51.186;6.926;2022-09-03T05:13:03;22.44;52.54
65239;SHT30;51827;51.186;6.926;2022-09-03T05:14:04;22.42;52.52
65239;SHT30;51827;51.186;6.926;2022-09-03T05:15:08;22.42;52.55
65239;SHT30;51827;51.186;6.926;2022-09-03T05:16:10;22.41;52.51
65239;SHT30;51827;51.186;6.926;2022-09-03T05:17:13;22.41;52.57
65239;SHT30;51827;51.186;6.926;2022-09-03T05:18:13;22.42;52.55
65239;SHT30;51827;51.186;6.926;2022-09-03T05:19:13;22.41;52.51
65239;SHT30;51827;51.186;6.926;2022-09-03T05:20:14;22.41;52.53
65239;SHT30;51827;51.186;6.926;2022-09-03T05:21:24;22.42;52.57
65239;SHT30;51827;51.186;6.926;2022-09-03T05:22:27;22.42;52.50
65239;SHT30;51827;51.186;6.926;2022-09-03T05:23:28;22.44;52.53
65239;SHT30;51827;51.186;6.926;2022-09-03T05:24:29;22.44;52.52
65239;SHT30;51827;51.186;6.926;2022-09-03T05:25:29;22.42;52.50
65239;SHT30;51827;51.186;6.926;2022-09-03T05:26:32;22.42;52.49
65239;SHT30;51827;51.186;6.926;2022-09-03T05:27:32;22.41;52.48
65239;SHT30;51827;51.186;6.926;2022-09-03T05:28:34;22.42;52.53
65239;SHT30;51827;51.186;6.926;2022-09-03T05:29:35;22.42;52.50
65239;SHT30;51827;51.186;6.926;2022-09-03T05:30:35;22.42;52.53
65239;SHT30;51827;51.186;6.926;2022-09-03T05:31:37;22.44;52.53
65239;SHT30;51827;51.186;6.926;2022-09-03T05:32:40;22.42;52.49
65239;SHT30;51827;51.186;6.926;2022-09-03T05:33:49;22.41;52.45
65239;SHT30;51827;51.186;6.926;2022-09-03T05:34:49;22.41;52.49
65239;SHT30;51827;51.186;6.926;2022-09-03T05:35:50;22.42;52.53
65239;SHT30;51827;51.186;6.926;2022-09-03T05:36:50;22.42;52.47
65239;SHT30;51827;51.186;6.926;2022-09-03T05:37:53;22.40;52.45
65239;SHT30;51827;51.186;6.926;2022-09-03T05:38:57;22.41;52.49
65239;SHT30;51827;51.186;6.926;2022-09-03T05:39:58;22.42;52.43
65239;SHT30;51827;51.186;6.926;2022-09-03T05:41:03;22.41;52.43
65239;SHT30;51827;51.186;6.926;2022-09-03T05:42:03;22.41;52.45
65239;SHT30;51827;51.186;6.926;2022-09-03T05:43:03;22.42;52.46
65239;SHT30;51827;51.186;6.926;2022-09-03T05:44:04;22.40;52.44
65239;SHT30;51827;51.186;6.926;2022-09-03T05:45:08;22.40;52.46
65239;SHT30;51827;51.186;6.926;2022-09-03T05:46:12;22.42;52.50
65239;SHT30;51827;51.186;6.926;2022-09-03T05:47:13;22.40;52.45
65239;SHT30;51827;51.186;6.926;2022-09-03T05:48:15;22.42;52.43
65239;SHT30;51827;51.186;6.926;2022-09-03T05:49:16;22.42;52.44
65239;SHT30;51827;51.186;6.926;2022-09-03T05:50:17;22.40;52.44
65239;SHT30;51827;51.186;6.926;2022-09-03T05:51:21;22.41;52.43
65239;SHT30;51827;51.186;6.926;2022-09-03T05:52:30;22.41;52.40
65239;SHT30;51827;51.186;6.926;2022-09-03T05:53:34;22.40;52.44
65239;SHT30;51827;51.186;6.926;2022-09-03T05:54:35;22.41;52.44
65239;SHT30;51827;51.186;6.926;2022-09-03T05:55:53;22.38;52.40
65239;SHT30;51827;51.186;6.926;2022-09-03T05:56:53;22.40;52.45
65239;SHT30;51827;51.186;6.926;2022-09-03T05:57:53;22.42;52.42
65239;SHT30;51827;51.186;6.926;2022-09-03T05:58:59;22.40;52.43
65239;SHT30;51827;51.186;6.926;2022-09-03T06:00:06;22.40;52.37
65239;SHT30;51827;51.186;6.926;2022-09-03T06:01:23;22.41;52.38
65239;SHT30;51827;51.186;6.926;2022-09-03T06:02:29;22.41;52.42
65239;SHT30;51827;51.186;6.926;2022-09-03T06:03:32;22.42;52.40
65239;SHT30;51827;51.186;6.926;2022-09-03T06:04:33;22.41;52.38
65239;SHT30;51827;51.186;6.926;2022-09-03T06:05:38;22.40;52.40
65239;SHT30;51827;51.186;6.926;2022-09-03T06:06:46;22.40;52.41
65239;SHT30;51827;51.186;6.926;2022-09-03T06:07:46;22.40;52.43
65239;SHT30;51827;51.186;6.926;2022-09-03T06:08:47;22.41;52.37
65239;SHT30;51827;51.186;6.926;2022-09-03T06:09:47;22.40;52.38
65239;SHT30;51827;51.186;6.926;2022-09-03T06:10:56;22.40;52.40
65239;SHT30;51827;51.186;6.926;2022-09-03T06:12:02;22.40;52.39
65239;SHT30;51827;51.186;6.926;2022-09-03T06:13:12;22.40;52.39
65239;SHT30;51827;51.186;6.926;2022-09-03T06:14:13;22.38;52.38
65239;SHT30;51827;51.186;6.926;2022-09-03T06:15:14;22.38;52.36
65239;SHT30;51827;51.186;6.926;2022-09-03T06:16:20;22.38;52.38
65239;SHT30;51827;51.186;6.926;2022-09-03T06:17:25;22.42;52.38
65239;SHT30;51827;51.186;6.926;2022-09-03T06:18:26;22.38;52.36
65239;SHT30;51827;51.186;6.926;2022-09-03T06:19:32;22.40;52.39
65239;SHT30;51827;51.186;6.926;2022-09-03T06:20:32;22.38;52.37
65239;SHT30;51827;51.186;6.926;2022-09-03T06:21:32;22.38;52.37
65239;SHT30;51827;51.186;6.926;2022-09-03T06:22:32;22.41;52.34
65239;SHT30;51827;51.186;6.926;2022-09-03T06:23:36;22.40;52.37
65239;SHT30;51827;51.186;6.926;2022-09-03T06:24:48;22.42;52.34
65239;SHT30;51827;51.186;6.926;2022-09-03T06:26:10;22.38;52.37
65239;SHT30;51827;51.186;6.926;2022-09-03T06:27:10;22.38;52.31
65239;SHT30;51827;51.186;6.926;2022-09-03T06:28:10;22.38;52.33
65239;SHT30;51827;51.186;6.926;2022-09-03T06:29:11;22.40;52.36
65239;SHT30;51827;51.186;6.926;2022-09-03T06:30:12;22.40;52.32
65239;SHT30;51827;51.186;6.926;2022-09-03T06:31:16;22.40;52.35
65239;SHT30;51827;51.186;6.926;2022-09-03T06:32:17;22.40;52.33
65239;SHT30;51827;51.186;6.926;2022-09-03T06:33:17;22.40;52.33
65239;SHT30;51827;51.186;6.926;2022-09-03T06:34:18;22.38;52.36
65239;SHT30;51827;51.186;6.926;2022-09-03T06:35:18;22.40;52.36
65239;SHT30;51827;51.186;6.926;2022-09-03T06:36:20;22.35;52.31
65239;SHT30;51827;51.186;6.926;2022-09-03T06:37:21;22.40;52.36
65239;SHT30;51827;51.186;6.926;2022-09-03T06:38:21;22.40;52.37
65239;SHT30;51827;51.186;6.926;2022-09-03T06:39:22;22.40;52.38
65239;SHT30;51827;51.186;6.926;2022-09-03T06:40:22;22.38;52.36
65239;SHT30;51827;51.186;6.926;2022-09-03T06:41:25;22.37;52.41
65239;SHT30;51827;51.186;6.926;2022-09-03T06:42:25;22.37;52.34
65239;SHT30;51827;51.186;6.926;2022-09-03T06:43:25;22.38;52.39
65239;SHT30;51827;51.186;6.926;2022-09-03T06:44:26;22.37;52.42
65239;SHT30;51827;51.186;6.926;2022-09-03T06:45:26;22.37;52.37
65239;SHT30;51827;51.186;6.926;2022-09-03T06:46:28;22.37;52.42
65239;SHT30;51827;51.186;6.926;2022-09-03T06:47:28;22.40;52.33
65239;SHT30;51827;51.186;6.926;2022-09-03T06:48:30;22.38;52.36
65239;SHT30;51827;51.186;6.926;2022-09-03T06:49:30;22.38;52.40
65239;SHT30;51827;51.186;6.926;2022-09-03T06:50:31;22.37;52.38
65239;SHT30;51827;51.186;6.926;2022-09-03T06:51:32;22.37;52.36
65239;SHT30;51827;51.186;6.926;2022-09-03T06:52:32;22.38;52.36
65239;SHT30;51827;51.186;6.926;2022-09-03T06:53:34;22.37;52.40
65239;SHT30;51827;51.186;6.926;2022-09-03T06:54:34;22.40;52.34
65239;SHT30;51827;51.186;6.926;2022-09-03T06:55:37;22.37;52.33
65239;SHT30;51827;51.186;6.926;2022-09-03T06:56:38;22.38;52.34
65239;SHT30;51827;51.186;6.926;2022-09-03T06:57:39;22.37;52.34
65239;SHT30;51827;51.186;6.926;2022-09-03T06:58:42;22.37;52.40
65239;SHT30;51827;51.186;6.926;2022-09-03T06:59:42;22.37;52.39
65239;SHT30;51827;51.186;6.926;2022-09-03T07:00:42;22.37;52.36
65239;SHT30;51827;51.186;6.926;2022-09-03T07:01:43;22.38;52.39
65239;SHT30;51827;51.186;6.926;2022-09-03T07:02:55;22.38;52.40
65239;SHT30;51827;51.186;6.926;2022-09-03T07:04:00;22.38;52.42
65239;SHT30;51827;51.186;6.926;2022-09-03T07:05:01;22.37;52.41
65239;SHT30;51827;51.186;6.926;2022-09-03T07:06:06;22.37;52.34
65239;SHT30;51827;51.186;6.926;2022-09-03T07:07:07;22.38;52.40
65239;SHT30;51827;51.186;6.926;2022-09-03T07:08:07;22.38;52.43
65239;SHT30;51827;51.186;6.926;2022-09-03T07:09:09;22.40;52.43
65239;SHT30;51827;51.186;6.926;2022-09-03T07:10:18;22.38;52.41
65239;SHT30;51827;51.186;6.926;2022-09-03T07:11:21;22.41;52.42
65239;SHT30;51827;51.186;6.926;2022-09-03T07:12:21;22.37;52.44
65239;SHT30;51827;51.186;6.926;2022-09-03T07:13:21;22.41;52.42
65239;SHT30;51827;51.186;6.926;2022-09-03T07:14:22;22.38;52.40
65239;SHT30;51827;51.186;6.926;2022-09-03T07:15:22;22.40;52.43
65239;SHT30;51827;51.186;6.926;2022-09-03T07:16:27;22.40;52.47
65239;SHT30;51827;51.186;6.926;2022-09-03T07:17:28;22.38;52.46
65239;SHT30;51827;51.186;6.926;2022-09-03T07:18:29;22.38;52.49
65239;SHT30;51827;51.186;6.926;2022-09-03T07:19:30;22.37;52.49
65239;SHT30;51827;51.186;6.926;2022-09-03T07:20:30;22.37;52.43
65239;SHT30;51827;51.186;6.926;2022-09-03T07:21:32;22.37;52.46
65239;SHT30;51827;51.186;6.926;2022-09-03T07:22:32;22.35;52.46
65239;SHT30;51827;51.186;6.926;2022-09-03T07:23:34;22.34;52.51
65239;SHT30;51827;51.186;6.926;2022-09-03T07:24:34;22.37;52.50
65239;SHT30;51827;51.186;6.926;2022-09-03T07:25:34;22.38;52.52
65239;SHT30;51827;51.186;6.926;2022-09-03T07:26:37;22.35;52.48
65239;SHT30;51827;51.186;6.926;2022-09-03T07:27:38;22.35;52.60
65239;SHT30;51827;51.186;6.926;2022-09-03T07:28:40;22.35;52.50
65239;SHT30;51827;51.186;6.926;2022-09-03T07:29:40;22.35;52.54
65239;SHT30;51827;51.186;6.926;2022-09-03T07:30:40;22.35;52.56
65239;SHT30;51827;51.186;6.926;2022-09-03T07:31:42;22.37;52.52
65239;SHT30;51827;51.186;6.926;2022-09-03T07:32:42;22.35;52.51
65239;SHT30;51827;51.186;6.926;2022-09-03T07:33:42;22.34;52.51